createdAt,value
2023-03-23T15:58:12.003Z,10.61
2023-03-23T16:00:40.308Z,10.51
2023-03-23T16:03:11.633Z,10.58
2023-03-23T16:05:38.873Z,10.58
2023-03-23T16:08:06.373Z,10.49
2023-03-23T16:10:33.491Z,10.63
2023-03-23T16:13:00.514Z,10.62
2023-03-23T16:15:27.632Z,10.49
2023-03-23T16:17:54.561Z,10.11
2023-03-23T16:20:23.727Z,10.65
2023-03-23T16:22:52.263Z,10.50
2023-03-23T16:25:19.966Z,10.60
2023-03-23T16:27:52.480Z,10.58
2023-03-23T16:30:26.062Z,10.57
2023-03-23T16:32:56.156Z,10.47
2023-03-23T16:35:26.328Z,10.49
2023-03-23T16:38:08.374Z,10.35
2023-03-23T16:40:37.366Z,10.07
2023-03-23T16:43:08.388Z,10.39
2023-03-23T16:45:38.296Z,10.40
2023-03-23T16:48:06.385Z,10.39
2023-03-23T16:50:34.779Z,10.25
2023-03-23T16:53:02.123Z,10.07
2023-03-23T16:55:31.489Z,10.09
2023-03-23T16:58:13.196Z,9.90
2023-03-23T17:00:43.960Z,9.83
2023-03-23T17:03:11.581Z,9.68
2023-03-23T17:05:38.704Z,9.33
2023-03-23T17:08:06.222Z,9.67
2023-03-23T17:10:33.474Z,9.54
2023-03-23T17:13:01.191Z,9.33
2023-03-23T17:15:28.836Z,9.64
2023-03-23T17:17:56.112Z,9.57
2023-03-23T17:20:23.790Z,9.65
2023-03-23T17:22:51.166Z,9.57
2023-03-23T17:25:18.094Z,9.55
2023-03-23T17:27:45.049Z,9.53
2023-03-23T17:30:12.701Z,9.30
2023-03-23T17:32:39.962Z,9.22
2023-03-23T17:35:07.631Z,9.22
2023-03-23T17:37:35.134Z,9.27
2023-03-23T17:40:02.380Z,9.23
2023-03-23T17:42:30.028Z,9.21
2023-03-23T17:44:57.025Z,9.16
2023-03-23T17:47:24.254Z,8.93
2023-03-23T17:49:51.627Z,9.13
2023-03-23T17:52:18.877Z,9.12
2023-03-23T17:54:46.020Z,9.10
2023-03-23T17:57:13.138Z,8.92
2023-03-23T17:59:40.295Z,9.02
2023-03-23T18:02:07.718Z,8.67
2023-03-23T18:04:36.771Z,8.80
2023-03-23T18:07:04.013Z,8.82
2023-03-23T18:09:31.308Z,8.32
2023-03-23T18:11:58.423Z,8.70
2023-03-23T18:14:25.596Z,8.84
2023-03-23T18:16:53.437Z,8.89
2023-03-23T18:19:20.490Z,8.77
2023-03-23T18:21:47.586Z,8.47
2023-03-23T18:24:14.838Z,8.70
2023-03-23T18:26:42.597Z,8.77
2023-03-23T18:29:09.554Z,8.70
2023-03-23T18:31:40.227Z,8.65
2023-03-23T18:34:08.017Z,8.71
2023-03-23T18:36:35.419Z,8.60
2023-03-23T18:39:04.096Z,8.24
2023-03-23T18:41:31.388Z,8.23
2023-03-23T18:43:58.343Z,8.31
2023-03-23T18:46:26.924Z,8.30
2023-03-23T18:48:54.131Z,8.28
2023-03-23T18:51:21.334Z,8.22
2023-03-23T18:53:48.470Z,8.13
2023-03-23T18:56:17.758Z,8.11
2023-03-23T18:58:45.801Z,8.20
2023-03-23T19:01:16.440Z,8.23
2023-03-23T19:03:44.774Z,8.22
2023-03-23T19:06:23.763Z,8.20
2023-03-23T19:08:52.311Z,8.18
2023-03-23T19:11:20.953Z,7.93
2023-03-23T19:14:00.408Z,8.16
2023-03-23T19:16:36.218Z,7.96
2023-03-23T19:19:05.708Z,8.14
2023-03-23T19:21:32.953Z,7.98
2023-03-23T19:24:01.425Z,7.89
2023-03-23T19:26:36.905Z,7.96
2023-03-23T19:31:48.813Z,7.74
2023-03-23T19:34:17.133Z,7.90
2023-03-23T19:36:54.490Z,7.75
2023-03-23T19:39:26.835Z,7.86
2023-03-23T19:41:53.985Z,7.69
2023-03-23T19:44:21.201Z,7.79
2023-03-23T19:46:48.419Z,7.54
2023-03-23T19:49:16.026Z,7.84
2023-03-23T19:51:43.094Z,7.75
2023-03-23T19:54:10.231Z,7.27
2023-03-23T19:56:38.440Z,7.59
2023-03-23T19:59:08.101Z,7.69
2023-03-23T20:01:35.022Z,7.60
2023-03-23T20:04:05.197Z,7.42
2023-03-23T20:06:37.700Z,7.61
2023-03-23T20:09:06.553Z,7.33
2023-03-23T20:11:34.587Z,7.40
2023-03-23T20:14:02.181Z,7.39
2023-03-23T20:16:29.391Z,7.42
2023-03-23T20:19:00.359Z,6.94
2023-03-23T20:21:27.641Z,7.37
2023-03-23T20:23:57.203Z,6.96
2023-03-23T20:26:37.673Z,7.17
2023-03-23T20:29:06.968Z,7.24
2023-03-23T20:31:37.767Z,7.04
2023-03-23T20:34:11.283Z,7.07
2023-03-23T20:36:42.364Z,7.17
2023-03-23T20:39:14.779Z,7.14
2023-03-23T20:41:43.687Z,6.77
2023-03-23T20:44:14.287Z,6.51
2023-03-23T20:46:46.513Z,7.08
2023-03-23T20:49:14.132Z,6.89
2023-03-23T20:51:41.683Z,6.17
2023-03-23T20:54:10.233Z,6.39
2023-03-23T20:56:37.694Z,6.51
2023-03-23T20:59:05.929Z,6.73
2023-03-23T21:01:37.208Z,6.66
2023-03-23T21:04:04.287Z,6.47
2023-03-23T21:06:31.544Z,6.51
2023-03-23T21:08:58.632Z,6.49
2023-03-23T21:11:27.212Z,6.50
2023-03-23T21:13:54.526Z,6.24
2023-03-23T21:16:24.260Z,6.56
2023-03-23T21:18:51.351Z,6.26
2023-03-23T21:21:18.612Z,6.28
2023-03-23T21:23:47.638Z,6.51
2023-03-23T21:26:17.190Z,6.33
2023-03-23T21:28:45.416Z,6.28
2023-03-23T21:31:13.814Z,6.26
2023-03-23T21:33:41.453Z,6.37
2023-03-23T21:36:08.629Z,6.33
2023-03-23T21:38:35.693Z,6.26
2023-03-23T21:41:08.372Z,6.03
2023-03-23T21:43:35.440Z,6.26
2023-03-23T21:46:09.092Z,6.29
2023-03-23T21:48:41.645Z,6.24
2023-03-23T21:51:13.634Z,6.25
2023-03-23T21:53:42.349Z,6.19
2023-03-23T21:56:11.436Z,5.92
2023-03-23T21:58:39.092Z,5.94
2023-03-23T22:01:07.061Z,5.99
2023-03-23T22:03:35.346Z,5.84
2023-03-23T22:06:15.205Z,6.07
2023-03-23T22:08:44.094Z,6.03
2023-03-23T22:11:14.515Z,5.95
2023-03-23T22:13:42.525Z,5.91
2023-03-23T22:16:13.542Z,5.90
2023-03-23T22:18:43.416Z,5.92
2023-03-23T22:21:12.227Z,5.81
2023-03-23T22:23:40.173Z,5.64
2023-03-23T22:26:09.412Z,5.99
2023-03-23T22:28:37.198Z,5.88
2023-03-23T22:31:08.712Z,5.87
2023-03-23T22:33:37.100Z,5.89
2023-03-23T22:36:06.836Z,5.90
2023-03-23T22:38:35.669Z,5.81
2023-03-23T22:41:04.869Z,5.70
2023-03-23T22:43:31.883Z,5.86
2023-03-23T22:45:59.636Z,5.87
2023-03-23T22:48:28.159Z,5.86
2023-03-23T22:50:55.565Z,5.86
2023-03-23T22:53:22.927Z,5.86
2023-03-23T22:55:53.489Z,5.73
2023-03-23T22:58:21.092Z,5.75
2023-03-23T23:00:51.191Z,5.45
2023-03-23T23:03:18.514Z,5.73
2023-03-23T23:05:50.323Z,5.42
2023-03-23T23:08:18.187Z,5.66
2023-03-23T23:10:48.090Z,5.58
2023-03-23T23:13:16.107Z,5.46
2023-03-23T23:15:47.317Z,5.47
2023-03-23T23:18:15.178Z,5.63
2023-03-23T23:20:43.544Z,5.24
2023-03-23T23:23:11.033Z,5.57
2023-03-23T23:25:38.366Z,5.56
2023-03-23T23:28:06.679Z,5.57
2023-03-23T23:30:34.774Z,5.29
2023-03-23T23:33:01.893Z,5.56
2023-03-23T23:35:29.315Z,5.58
2023-03-23T23:37:56.431Z,5.18
2023-03-23T23:40:23.684Z,5.39
2023-03-23T23:42:52.604Z,5.56
2023-03-23T23:45:20.049Z,5.40
2023-03-23T23:47:47.579Z,5.34
2023-03-23T23:50:23.132Z,5.47
2023-03-23T23:52:50.289Z,5.21
2023-03-23T23:55:18.692Z,5.40
2023-03-23T23:57:47.911Z,5.23
